Flight Track Log - Related Links

Times and Time Zones

All times are in EDT time to prevent confusion due to time zone crossing. See the FLG3432 flight status page for this flight to view local times or setup timezone preferences in your user account.

Time Position Orientation Groundspeed Altitude Reporting Facility
EDT Latitude Longitude Course Direction KTS MPH feet Rate Location/Type
Tue 06:30:38 AM 42.7778 -73.8092 283° West 176 203 1,500  Level Boston Center
Tue 06:31:08 AM 42.8006 -73.8069 North 174 200 2,600 2,304 Climbing Boston Center
Tue 06:32:43 AM 42.8919 -73.8542 339° North 275 316 6,300 2,439 Climbing Boston Center
Tue 06:33:00 AM 42.8080 -74.1686 282° West  Level FlightAware Approximate
Tue 06:33:43 AM 42.9433 -73.9036 325° Northwest 268 308 8,900  Level Boston Center
Tue 06:34:00 AM 42.8275 -74.2954 282° West  Level FlightAware Approximate
Tue 06:34:43 AM 43.0133 -73.9622 329° Northwest 268 308 11,600  Level Boston Center
Tue 06:35:00 AM 42.8481 -74.4219 283° West  Level FlightAware Approximate
Tue 06:35:43 AM 43.0792 -74.0233 326° Northwest 294 338 13,300  Level Boston Center
Tue 06:36:43 AM 43.1531 -74.1078 320° Northwest 311 358 15,600 2,150 Climbing Boston Center
Tue 06:37:43 AM 43.1639 -74.2250 277° West 324 373 17,600 1,900 Climbing Boston Center
Tue 06:38:43 AM 43.1739 -74.3675 276° West 340 391 19,400 1,800 Climbing Boston Center
Tue 06:39:43 AM 43.1842 -74.5044 276° West 351 404 21,200 1,800 Climbing Boston Center
Tue 06:40:43 AM 43.1961 -74.6417 277° West 362 417 23,000 1,600 Climbing Boston Center
Tue 06:41:43 AM 43.2058 -74.7817 275° West 372 428 24,400 1,500 Climbing Boston Center
Tue 06:42:43 AM 43.2153 -74.9272 275° West 379 436 26,000 1,450 Climbing Boston Center
Tue 06:43:43 AM 43.2244 -75.0703 275° West 379 436 27,300 1,100 Climbing Boston Center
Tue 06:44:43 AM 43.2319 -75.2044 274° West 385 443 28,200 1,136 Climbing Boston Center
Tue 06:45:55 AM 43.2461 -75.3875 276° West 396 456 29,800 909 Climbing Boston Center
Tue 06:46:55 AM 43.2564 -75.5450 275° West 407 468 30,200 1,050 Climbing Boston Center
Tue 06:47:55 AM 43.2669 -75.6936 276° West 407 468 31,900 900 Climbing Boston Center
Tue 06:48:55 AM 43.2769 -75.8511 275° West 407 468 32,000 50 Climbing Boston Center
Tue 06:49:55 AM 43.2869 -76.0031 275° West 407 468 32,000  Level Boston Center
Tue 06:50:55 AM 43.2944 -76.1517 274° West 407 468 32,000 466 Level Boston Center
Tue 06:53:21 AM 43.3136 -76.5028 274° West 389 448 33,600 757 Climbing Cleveland Center
Tue 06:54:21 AM 43.3208 -76.6508 274° West 389 448 34,600 1,000 Climbing Cleveland Center
Tue 06:55:21 AM 43.3278 -76.7958 274° West 384 442 35,600 700 Climbing Cleveland Center
Tue 06:56:21 AM 43.3367 -76.9439 275° West 384 442 36,000 200 Climbing Cleveland Center
Tue 06:57:21 AM 43.3439 -77.1089 274° West 389 448 36,000  Level Cleveland Center
Tue 06:58:21 AM 43.3503 -77.2514 274° West 409 471 36,000  Level Cleveland Center
Tue 06:59:21 AM 43.3586 -77.4022 274° West 409 471 36,000  Level Cleveland Center
Tue 07:00:21 AM 43.3644 -77.5478 273° West 398 458 36,000  Level Cleveland Center
Tue 07:01:21 AM 43.3725 -77.6958 274° West 393 452 36,000  Level Cleveland Center
Tue 07:02:21 AM 43.3803 -77.8442 274° West 393 452 36,000  Level Cleveland Center
Tue 07:03:21 AM 43.3858 -77.9922 273° West 393 452 36,000  Level Cleveland Center
Tue 07:04:21 AM 43.3911 -78.1408 273° West 393 452 36,000  Level Cleveland Center
Tue 07:05:21 AM 43.3961 -78.2892 273° West 393 452 36,000  Level Cleveland Center
Tue 07:06:21 AM 43.4011 -78.4433 273° West 398 458 36,000  Level Cleveland Center
Tue 07:07:21 AM 43.4081 -78.5944 274° West 404 465 36,000  Level Cleveland Center
Tue 07:08:21 AM 43.4144 -78.7372 274° West 398 458 36,000  Level Cleveland Center
Tue 07:09:21 AM 43.4189 -78.8828 272° West 392 451 36,000  Level Cleveland Center
Tue 07:10:24 AM 43.4167 -79.0333 269° West 370 426 36,000  Level Toronto Center
Tue 07:11:24 AM 43.4167 -79.1667 270° West 370 426 36,000  Level Toronto Center
Tue 07:12:24 AM 43.4167 -79.3167 270° West 370 426 36,000  Level Toronto Center
Tue 07:13:24 AM 43.4333 -79.4500 280° West 360 414 36,000  Level Toronto Center
Tue 07:14:24 AM 43.4333 -79.5833 270° West 360 414 36,000  Level Toronto Center
Tue 07:15:24 AM 43.4333 -79.7167 270° West 360 414 36,000  Level Toronto Center
Tue 07:16:24 AM 43.4333 -79.8667 270° West 360 414 36,000  Level Toronto Center
Tue 07:17:24 AM 43.4667 -79.9833 292° West 340 391 36,000  Level Toronto Center
Tue 07:18:24 AM 43.5000 -80.1000 292° West 330 380 36,000  Level Toronto Center
Tue 07:19:24 AM 43.5333 -80.2000 295° West 330 380 36,000  Level Toronto Center
Tue 07:20:24 AM 43.5667 -80.3167 292° West 330 380 36,000  Level Toronto Center
Tue 07:21:24 AM 43.6000 -80.4333 292° West 330 380 36,000  Level Toronto Center
Tue 07:22:24 AM 43.6500 -80.5833 295° West 330 380 36,000  Level Toronto Center
Tue 07:23:24 AM 43.6833 -80.6667 299° West 330 380 36,000  Level Toronto Center
Tue 07:24:24 AM 43.7167 -80.8167 287° West 330 380 36,000  Level Toronto Center
Tue 07:25:24 AM 43.7333 -80.9000 285° West 330 380 36,000  Level Toronto Center
Tue 07:26:24 AM 43.7667 -81.0333 289° West 330 380 36,000  Level Toronto Center
Tue 07:27:24 AM 43.8000 -81.1500 292° West 330 380 36,000  Level Toronto Center
Tue 07:28:24 AM 43.8167 -81.3000 279° West 340 391 36,000  Level Toronto Center
Tue 07:29:24 AM 43.8333 -81.4167 281° West 340 391 36,000  Level Toronto Center
Tue 07:30:24 AM 43.8500 -81.5333 281° West 340 391 36,000  Level Toronto Center
Tue 07:31:24 AM 43.8667 -81.6667 280° West 340 391 36,000  Level Toronto Center
Tue 07:32:24 AM 43.8833 -81.7833 281° West 340 391 36,000  Level Toronto Center
Tue 07:33:24 AM 43.9167 -81.9167 289° West 340 391 36,000  Level Toronto Center
Tue 07:34:24 AM 43.9167 -82.0667 270° West 340 391 36,000  Level Toronto Center
Tue 07:35:24 AM 43.9333 -82.2000 280° West 340 391 36,000  Level Toronto Center
Tue 07:36:24 AM 43.9500 -82.3167 281° West 340 391 36,000  Level Toronto Center
Tue 07:37:24 AM 43.9667 -82.4667 279° West 350 403 36,000  Level Toronto Center
Tue 07:37:40 AM 43.9825 -82.4817 326° Northwest 348 400 36,000  Level Minneapolis Center
Tue 07:38:41 AM 44.0006 -82.6125 281° West 347 399 36,000  Level Minneapolis Center
Tue 07:39:42 AM 44.0178 -82.7450 280° West 349 402 36,000  Level Minneapolis Center
Tue 07:40:42 AM 44.0331 -82.8778 279° West 349 402 36,000  Level Minneapolis Center
Tue 07:41:43 AM 44.0486 -83.0111 279° West 350 403 36,000  Level Minneapolis Center
Tue 07:42:44 AM 44.0658 -83.1442 280° West 350 403 36,000  Level Minneapolis Center
Tue 07:43:45 AM 44.0844 -83.3050 279° West 351 404 36,000  Level Minneapolis Center
Tue 07:44:46 AM 44.1000 -83.4386 279° West 351 404 36,000  Level Minneapolis Center
Tue 07:45:47 AM 44.1150 -83.5722 279° West 351 404 36,000  Level Minneapolis Center
Tue 07:47:00 AM 44.1306 -83.7072 279° West 353 406 36,000  Level Minneapolis Center
Tue 07:48:02 AM 44.1503 -83.8683 280° West 353 406 36,000  Level Minneapolis Center
Tue 07:49:15 AM 44.1647 -84.0033 279° West 352 405 36,000  Level Minneapolis Center
Tue 07:50:28 AM 44.1833 -84.1650 279° West 353 406 36,000  Level Minneapolis Center
Tue 07:51:29 AM 44.2014 -84.3292 279° West 357 411 36,000  Level Minneapolis Center
Tue 07:52:30 AM 44.2169 -84.4658 279° West 358 412 36,000  Level Minneapolis Center
Tue 07:53:44 AM 44.2303 -84.6008 278° West 353 406 36,000  Level Minneapolis Center
Tue 07:54:45 AM 44.2483 -84.7683 279° West 361 415 36,000  Level Minneapolis Center
Tue 07:55:46 AM 44.2664 -84.9322 279° West 360 414 36,000  Level Minneapolis Center
Tue 07:56:47 AM 44.2803 -85.0714 278° West 361 415 36,000  Level Minneapolis Center
Tue 07:57:49 AM 44.2944 -85.2103 278° West 362 417 36,000  Level Minneapolis Center
Tue 07:58:50 AM 44.3083 -85.3481 278° West 360 414 36,000  Level Minneapolis Center
Tue 07:59:51 AM 44.3225 -85.4878 278° West 361 415 36,000  Level Minneapolis Center
Tue 08:00:52 AM 44.3358 -85.6281 278° West 363 418 36,000  Level Minneapolis Center
Tue 08:01:54 AM 44.3483 -85.7692 277° West 365 420 36,000  Level Minneapolis Center
Tue 08:02:55 AM 44.3628 -85.9108 278° West 367 422 36,000  Level Minneapolis Center
Tue 08:03:56 AM 44.3756 -86.0522 277° West 365 420 36,000  Level Minneapolis Center
Tue 08:04:57 AM 44.3886 -86.1950 277° West 368 423 36,000  Level Minneapolis Center
Tue 08:05:59 AM 44.4008 -86.3372 277° West 367 422 36,000  Level Minneapolis Center
Tue 08:07:00 AM 44.4147 -86.4789 278° West 366 421 36,000  Level Minneapolis Center
Tue 08:08:01 AM 44.4292 -86.6497 277° West 368 423 36,000  Level Minneapolis Center
Tue 08:09:03 AM 44.4411 -86.7917 277° West 367 422 36,000  Level Minneapolis Center
Tue 08:10:04 AM 44.4528 -86.9331 277° West 367 422 36,000  Level Minneapolis Center
Tue 08:11:06 AM 44.4647 -87.0772 277° West 370 426 36,000  Level Minneapolis Center
Tue 08:12:07 AM 44.4772 -87.2208 277° West 372 428 36,000  Level Minneapolis Center
Tue 08:13:08 AM 44.4911 -87.3686 278° West 379 436 36,000  Level Minneapolis Center
Tue 08:14:22 AM 44.5033 -87.5131 277° West 375 432 36,000  Level Minneapolis Center
Tue 08:15:24 AM 44.5169 -87.6892 276° West 380 437 36,000  Level Minneapolis Center
Tue 08:16:25 AM 44.5294 -87.8406 277° West 390 449 36,000  Level Minneapolis Center
Tue 08:17:27 AM 44.5425 -88.0167 276° West 390 449 36,000  Level Minneapolis Center
Tue 08:18:28 AM 44.5539 -88.1703 276° West 395 455 36,000  Level Minneapolis Center
Tue 08:19:30 AM 44.5706 -88.3211 279° West 393 452 36,000  Level Minneapolis Center
Tue 08:20:31 AM 44.5886 -88.4733 280° West 395 455 36,000  Level Minneapolis Center
Tue 08:21:33 AM 44.6058 -88.6261 279° West 396 456 36,000  Level Minneapolis Center
Tue 08:22:34 AM 44.6258 -88.8036 279° West 394 453 36,000 -341 Level Minneapolis Center
Tue 08:23:36 AM 44.6433 -88.9528 279° West 392 451 35,300 -1,065 Descending Minneapolis Center
Tue 08:24:38 AM 44.6597 -89.1017 279° West 387 445 33,800 -1,366 Descending Minneapolis Center
Tue 08:25:39 AM 44.6736 -89.2231 279° West 384 442 32,500 -878 Descending Minneapolis Center
Tue 08:26:41 AM 44.6914 -89.3914 279° West 377 434 32,000 -244 Descending Minneapolis Center
Tue 08:27:42 AM 44.7072 -89.5364 279° West 375 432 32,000  Level Minneapolis Center
Tue 08:28:44 AM 44.7222 -89.6908 278° West 391 450 32,000  Level Minneapolis Center
Tue 08:29:46 AM 44.7422 -89.8722 279° West 401 461 32,000  Level Minneapolis Center
Tue 08:30:47 AM 44.7619 -90.0256 280° West 400 460 32,000  Level Minneapolis Center
Tue 08:31:49 AM 44.7825 -90.1758 281° West 393 452 32,000  Level Minneapolis Center
Tue 08:32:50 AM 44.8025 -90.3244 281° West 389 448 32,000  Level Minneapolis Center
Tue 08:33:52 AM 44.8225 -90.4731 281° West 387 445 32,000 -677 Level Minneapolis Center
Tue 08:34:54 AM 44.8436 -90.6403 280° West 391 450 30,600 -1,610 Descending Minneapolis Center
Tue 08:35:55 AM 44.8644 -90.7967 281° West 403 464 28,700 -1,756 Descending Minneapolis Center
Tue 08:36:57 AM 44.8822 -90.9369 280° West 390 449 27,000 -1,645 Descending Minneapolis Center
Tue 08:37:59 AM 44.8992 -91.0828 279° West 382 440 25,300 -1,707 Descending Minneapolis Center
Tue 08:39:00 AM 44.9189 -91.2272 281° West 378 435 23,500 -1,951 Descending Minneapolis Center
Tue 08:40:02 AM 44.9403 -91.3964 280° West 370 426 21,300 -1,778 Descending Minneapolis Center
Tue 08:41:15 AM 44.9567 -91.5306 280° West 357 411 19,500 -1,822 Descending Minneapolis Center
Tue 08:42:17 AM 44.9781 -91.6894 281° West 347 399 17,200 -1,984 Descending Minneapolis Center
Tue 08:43:19 AM 44.9950 -91.8225 280° West 346 398 15,400 -1,756 Descending Minneapolis Center
Tue 08:44:20 AM 45.0094 -91.9539 279° West 338 389 13,600 -1,756 Descending Minneapolis Center
Tue 08:45:22 AM 45.0247 -92.0803 280° West 327 376 11,800 -1,268 Descending Minneapolis Center
Tue 08:46:23 AM 45.0367 -92.1783 280° West 321 369 11,000 -390 Descending Minneapolis Center
Tue 08:47:25 AM 45.0392 -92.3511 271° West 325 374 11,000 -390 Level Minneapolis Center
Tue 08:48:26 AM 44.9989 -92.4578 242° Southwest 306 352 10,200 -878 Descending Minneapolis Center
Tue 08:49:28 AM 44.9578 -92.5447 236° Southwest 269 310 9,200 -1,073 Descending Minneapolis Center
Tue 08:50:29 AM 44.9153 -92.6331 236° Southwest 274 315 8,000 -1,073 Descending Minneapolis Center
Tue 08:51:31 AM 44.8717 -92.7242 236° Southwest 281 323 7,000 -829 Descending Minneapolis Center
Tue 08:52:32 AM 44.8286 -92.8131 236° Southwest 276 318 6,300 -927 Descending Minneapolis Center
Tue 08:53:34 AM 44.7969 -92.9058 244° Southwest 265 305 5,100 -1,161 Descending Minneapolis Center

Login

Don't have an account? Register now (free) for customized features, flight alerts, and more!